createdAt,value
2023-02-14T00:01:01.170Z,31
2023-02-14T00:02:01.661Z,30.5
2023-02-14T00:03:02.405Z,28.39999962
2023-02-14T00:04:03.017Z,29.89999962
2023-02-14T00:05:03.753Z,32.29999924
2023-02-14T00:06:04.436Z,31.79999924
2023-02-14T00:07:05.887Z,27.29999924
2023-02-14T00:08:06.598Z,29.70000076
2023-02-14T00:09:07.260Z,30.79999924
2023-02-14T00:10:07.925Z,32
2023-02-14T00:11:09.417Z,30.20000076
2023-02-14T00:12:10.065Z,29.29999924
2023-02-14T00:13:11.023Z,29.29999924
2023-02-14T00:14:11.595Z,30
2023-02-14T00:15:12.432Z,29.20000076
2023-02-14T00:16:43.720Z,31
2023-02-14T00:17:45.239Z,33.59999847
2023-02-14T00:18:45.975Z,30
2023-02-14T00:19:46.719Z,31.29999924
2023-02-14T00:20:47.449Z,31.29999924
2023-02-14T00:21:48.136Z,28.89999962
2023-02-14T00:22:48.889Z,30.20000076
2023-02-14T00:23:49.648Z,28.89999962
2023-02-14T00:24:50.306Z,32.59999847
2023-02-14T00:25:50.975Z,25.89999962
2023-02-14T00:26:51.812Z,31.29999924
2023-02-14T00:27:53.185Z,35.20000076
2023-02-14T00:28:53.850Z,31.20000076
2023-02-14T00:29:54.601Z,29.20000076
2023-02-14T00:30:55.926Z,27.89999962
2023-02-14T00:31:56.666Z,31.20000076
2023-02-14T00:32:57.209Z,31.20000076
2023-02-14T00:33:57.828Z,30.10000038
2023-02-14T00:34:58.389Z,29.10000038
2023-02-14T00:35:59.873Z,30.29999924
2023-02-14T00:37:01.343Z,27.70000076
2023-02-14T00:38:01.896Z,28.89999962
2023-02-14T00:39:03.429Z,31.39999962
2023-02-14T00:40:04.030Z,28.20000076
2023-02-14T00:41:04.637Z,31.29999924
2023-02-14T00:42:05.298Z,33.79999924
2023-02-14T00:43:05.952Z,31.5
2023-02-14T00:44:06.710Z,30.39999962
2023-02-14T00:45:07.461Z,31.10000038
2023-02-14T00:46:08.161Z,33.79999924
2023-02-14T00:47:09.401Z,31.39999962
2023-02-14T00:48:10.397Z,32.40000153
2023-02-14T00:49:11.106Z,30.5
2023-02-14T00:50:11.803Z,32.09999847
2023-02-14T00:51:12.860Z,31.79999924
2023-02-14T00:52:43.967Z,30.70000076
2023-02-14T00:53:44.580Z,33
2023-02-14T00:54:45.278Z,34.29999924
2023-02-14T00:55:45.889Z,33.5
2023-02-14T00:56:46.562Z,32
2023-02-14T00:57:48.235Z,36.5
2023-02-14T00:58:48.871Z,33.29999924
2023-02-14T00:59:49.617Z,31.5
2023-02-14T01:00:50.973Z,34.40000153
2023-02-14T01:01:51.646Z,33
2023-02-14T01:02:52.298Z,33.29999924
2023-02-14T01:03:53.145Z,33.09999847
2023-02-14T01:04:53.839Z,34.79999924
2023-02-14T01:05:54.539Z,33.40000153
2023-02-14T01:06:55.174Z,31.60000038
2023-02-14T01:07:56.641Z,31.79999924
2023-02-14T01:08:57.332Z,32.59999847
2023-02-14T01:09:58.052Z,33.20000076
2023-02-14T01:10:59.128Z,31.10000038
2023-02-14T01:11:59.381Z,31.70000076
2023-02-14T01:13:00.035Z,29.70000076
2023-02-14T01:14:00.706Z,28.70000076
2023-02-14T01:15:01.484Z,31.60000038
2023-02-14T01:16:02.262Z,27.20000076
2023-02-14T01:17:02.838Z,27.79999924
2023-02-14T01:18:04.191Z,28.39999962
2023-02-14T01:19:04.887Z,29.5
2023-02-14T01:20:05.603Z,28.29999924
2023-02-14T01:21:06.299Z,30
2023-02-14T01:22:06.971Z,33.90000153
2023-02-14T01:23:07.599Z,27.29999924
2023-02-14T01:24:08.288Z,27.60000038
2023-02-14T01:25:09.029Z,28
2023-02-14T01:26:09.764Z,27.89999962
2023-02-14T01:27:10.612Z,30.29999924
2023-02-14T01:28:12.627Z,27.70000076
2023-02-14T01:29:43.578Z,27.70000076
2023-02-14T01:30:44.465Z,26.79999924
2023-02-14T01:31:45.705Z,29.10000038
2023-02-14T01:32:46.384Z,30.10000038
2023-02-14T01:33:47.053Z,34.09999847
2023-02-14T01:34:47.732Z,32.40000153
2023-02-14T01:35:48.466Z,28.39999962
2023-02-14T01:36:49.230Z,32.59999847
2023-02-14T01:37:50.877Z,30.29999924
2023-02-14T01:38:51.648Z,28.60000038
2023-02-14T01:39:52.300Z,28.60000038
2023-02-14T01:40:52.965Z,25.70000076
2023-02-14T01:41:53.770Z,30.60000038
2023-02-14T01:42:54.485Z,28.20000076
2023-02-14T01:43:55.251Z,28.20000076
2023-02-14T01:44:55.904Z,29.29999924
2023-02-14T01:45:56.597Z,29.10000038
2023-02-14T01:46:57.266Z,27.70000076
2023-02-14T01:47:58.930Z,31.10000038
2023-02-14T01:48:59.784Z,28
2023-02-14T01:50:00.419Z,28
2023-02-14T01:51:01.360Z,28.10000038
2023-02-14T01:52:03.885Z,28.39999962
2023-02-14T01:53:02.581Z,27.79999924
2023-02-14T01:54:03.346Z,26.89999962
2023-02-14T01:55:04.021Z,27.39999962
2023-02-14T01:56:04.811Z,29.79999924
2023-02-14T01:57:05.428Z,28
2023-02-14T01:58:06.900Z,30.29999924
2023-02-14T01:59:07.564Z,27.89999962
2023-02-14T02:00:08.282Z,28.60000038
2023-02-14T02:01:09.966Z,28.79999924
2023-02-14T02:02:10.736Z,30.20000076
2023-02-14T02:03:11.453Z,28
2023-02-14T02:04:42.844Z,27.89999962
2023-02-14T02:05:43.612Z,28.70000076
2023-02-14T02:06:44.235Z,26.89999962
2023-02-14T02:07:45.400Z,29.29999924
2023-02-14T02:08:46.158Z,28.20000076
2023-02-14T02:09:46.966Z,28.5
2023-02-14T02:10:47.613Z,28
2023-02-14T02:11:48.906Z,27.10000038
2023-02-14T02:12:49.576Z,28.70000076
2023-02-14T02:13:50.286Z,32
2023-02-14T02:14:51.045Z,28.70000076
2023-02-14T02:15:51.831Z,29
2023-02-14T02:16:52.533Z,26.79999924
2023-02-14T02:17:53.884Z,28.79999924
2023-02-14T02:18:54.595Z,28.10000038
2023-02-14T02:19:55.299Z,29.5
2023-02-14T02:20:56.007Z,30.89999962
2023-02-14T02:21:56.692Z,26.10000038
2023-02-14T02:22:57.369Z,28.60000038
2023-02-14T02:23:58.006Z,26
2023-02-14T02:24:58.718Z,26.60000038
2023-02-14T02:25:59.461Z,31.5
2023-02-14T02:27:00.154Z,27.39999962
2023-02-14T02:28:01.852Z,27
2023-02-14T02:29:02.541Z,28.79999924
2023-02-14T02:30:03.353Z,25.39999962
2023-02-14T02:31:05.125Z,26.89999962
2023-02-14T02:32:05.840Z,26.60000038
2023-02-14T02:33:06.364Z,25.5
2023-02-14T02:34:07.078Z,28
2023-02-14T02:35:07.692Z,26.20000076
2023-02-14T02:36:08.463Z,26.89999962
2023-02-14T02:37:09.256Z,27.89999962
2023-02-14T02:38:10.773Z,26.89999962
2023-02-14T02:39:11.946Z,26.60000038
2023-02-14T02:40:43.565Z,25.39999962
2023-02-14T02:41:44.865Z,23.5
2023-02-14T02:42:45.628Z,29.5
2023-02-14T02:43:46.304Z,25.89999962
2023-02-14T02:44:46.963Z,27.70000076
2023-02-14T02:45:47.694Z,26.89999962
2023-02-14T02:46:48.342Z,26.89999962
2023-02-14T02:47:49.119Z,26.5
2023-02-14T02:48:50.755Z,25.79999924
2023-02-14T02:49:51.534Z,27.5
2023-02-14T02:50:52.227Z,24.5
2023-02-14T02:51:53.031Z,25.70000076
2023-02-14T02:52:53.646Z,27.5
2023-02-14T02:53:54.418Z,25.5
2023-02-14T02:54:55.186Z,29.5
2023-02-14T02:55:55.845Z,23.89999962
2023-02-14T02:56:56.535Z,24.20000076
2023-02-14T02:57:57.295Z,28.29999924
2023-02-14T02:58:58.820Z,27.10000038
2023-02-14T02:59:59.583Z,28
2023-02-14T03:01:01.383Z,30.20000076
2023-02-14T03:02:01.669Z,26.79999924
2023-02-14T03:03:02.587Z,29.60000038
2023-02-14T03:04:03.309Z,28.5
2023-02-14T03:05:04.055Z,26.29999924
2023-02-14T03:06:05.382Z,27.60000038
2023-02-14T03:07:06.076Z,29.5
2023-02-14T03:08:06.738Z,28.60000038
2023-02-14T03:09:08.354Z,26.89999962
2023-02-14T03:10:09.211Z,29.60000038
2023-02-14T03:11:09.972Z,25.79999924
2023-02-14T03:12:10.763Z,27.10000038
2023-02-14T03:13:42.076Z,27.79999924
2023-02-14T03:14:42.840Z,27.39999962
2023-02-14T03:15:43.537Z,27.60000038
2023-02-14T03:16:44.292Z,28.70000076
2023-02-14T03:17:44.972Z,26.20000076
2023-02-14T03:18:46.163Z,31.29999924
2023-02-14T03:19:46.952Z,27.20000076
2023-02-14T03:20:47.696Z,25
2023-02-14T03:21:48.425Z,25.20000076
2023-02-14T03:22:49.081Z,26
2023-02-14T03:23:49.781Z,27.60000038
2023-02-14T03:24:50.580Z,26.39999962
2023-02-14T03:25:51.435Z,24.89999962
2023-02-14T03:26:52.127Z,26.70000076
2023-02-14T03:27:53.369Z,26.70000076
2023-02-14T03:28:54.917Z,26.39999962
2023-02-14T03:29:55.679Z,26.20000076
2023-02-14T03:30:56.606Z,29.70000076
2023-02-14T03:31:58.008Z,27.70000076
2023-02-14T03:32:58.666Z,25.20000076
2023-02-14T03:33:59.423Z,24.20000076
2023-02-14T03:35:00.160Z,23.70000076
2023-02-14T03:36:01.011Z,26.10000038
2023-02-14T03:37:01.824Z,27.20000076
2023-02-14T03:38:02.552Z,22.79999924
2023-02-14T03:39:04.217Z,23.89999962
2023-02-14T03:40:04.886Z,24.29999924
2023-02-14T03:41:05.616Z,22.60000038
2023-02-14T03:42:06.474Z,27.5
2023-02-14T03:43:07.055Z,24.79999924
2023-02-14T03:44:07.707Z,23.39999962
2023-02-14T03:45:08.549Z,21.20000076
2023-02-14T03:46:09.296Z,24.79999924
2023-02-14T03:47:10.009Z,24.10000038
2023-02-14T03:48:42.384Z,25.5
2023-02-14T03:49:43.114Z,25.20000076
2023-02-14T03:50:43.819Z,24.70000076
2023-02-14T03:51:44.628Z,30.29999924
2023-02-14T03:52:45.475Z,25.39999962
2023-02-14T03:53:46.241Z,25.89999962
2023-02-14T03:54:46.936Z,24.29999924
2023-02-14T03:55:47.674Z,26.20000076
2023-02-14T03:56:48.394Z,25.60000038
2023-02-14T03:57:49.123Z,25.39999962
2023-02-14T03:58:51.123Z,25.79999924
2023-02-14T03:59:52.752Z,23.60000038
2023-02-14T04:00:53.278Z,25.70000076
2023-02-14T04:01:54.051Z,24.60000038
2023-02-14T04:02:55.244Z,23.10000038
2023-02-14T04:03:55.881Z,25.29999924
2023-02-14T04:04:56.321Z,25.10000038
2023-02-14T04:05:56.985Z,25
2023-02-14T04:06:57.431Z,25.60000038
2023-02-14T04:07:57.897Z,25.39999962
2023-02-14T04:08:59.335Z,23.89999962
2023-02-14T04:09:59.856Z,26.29999924
2023-02-14T04:11:00.944Z,24.70000076
2023-02-14T04:12:01.118Z,25.79999924
2023-02-14T04:13:01.583Z,24.39999962
2023-02-14T04:14:02.462Z,25.89999962
2023-02-14T04:15:03.046Z,25
2023-02-14T04:16:04.359Z,24.70000076
2023-02-14T04:17:04.966Z,24.70000076
2023-02-14T04:18:05.446Z,26.70000076
2023-02-14T04:19:06.987Z,25.10000038
2023-02-14T04:20:07.554Z,24.89999962
2023-02-14T04:21:08.052Z,25.10000038
2023-02-14T04:22:08.872Z,24.20000076
2023-02-14T04:23:09.481Z,24.10000038
2023-02-14T04:24:09.925Z,27.79999924
2023-02-14T04:25:41.175Z,24.10000038
2023-02-14T04:26:41.686Z,23.39999962
2023-02-14T04:27:42.422Z,23.5
2023-02-14T04:28:43.803Z,26.10000038
2023-02-14T04:29:44.404Z,22.89999962
2023-02-14T04:30:45.081Z,30.29999924
2023-02-14T04:31:46.640Z,24.20000076
2023-02-14T04:32:47.217Z,26.5
2023-02-14T04:33:47.647Z,25
2023-02-14T04:34:49.170Z,25.5
2023-02-14T04:35:49.774Z,27
2023-02-14T04:36:50.331Z,24.79999924
2023-02-14T04:37:51.012Z,25.39999962
2023-02-14T04:38:52.326Z,23.79999924
2023-02-14T04:39:52.820Z,23.39999962
2023-02-14T04:40:53.336Z,28
2023-02-14T04:41:53.972Z,24.10000038
2023-02-14T04:42:54.610Z,25.20000076
2023-02-14T04:43:55.128Z,24.79999924
2023-02-14T04:44:55.813Z,22.60000038
2023-02-14T04:45:56.282Z,25.70000076
2023-02-14T04:46:56.887Z,27.20000076
2023-02-14T04:47:57.378Z,26.29999924
2023-02-14T04:48:58.879Z,25.60000038
2023-02-14T04:49:59.436Z,22.20000076
2023-02-14T04:51:00.108Z,26.39999962
2023-02-14T04:52:00.579Z,27.10000038
2023-02-14T04:53:01.435Z,24.5
2023-02-14T04:54:01.926Z,25.70000076
2023-02-14T04:55:02.593Z,23.5
2023-02-14T04:56:04.018Z,25.79999924
2023-02-14T04:57:04.552Z,24.39999962
2023-02-14T04:58:05.057Z,23.70000076
2023-02-14T04:59:06.329Z,23.10000038
2023-02-14T05:00:06.832Z,22
2023-02-14T05:01:07.339Z,25.79999924
2023-02-14T05:02:07.915Z,27
2023-02-14T05:03:09.099Z,22.79999924
2023-02-14T05:04:10.483Z,24.70000076
2023-02-14T05:05:41.324Z,22.89999962
2023-02-14T05:06:41.835Z,23.79999924
2023-02-14T05:07:42.386Z,22.10000038
2023-02-14T05:08:42.951Z,26
2023-02-14T05:09:44.117Z,20.89999962
2023-02-14T05:10:44.621Z,23.60000038
2023-02-14T05:11:46.145Z,25.39999962
2023-02-14T05:12:46.777Z,23.39999962
2023-02-14T05:13:47.373Z,22.89999962
2023-02-14T05:14:47.904Z,23.60000038
2023-02-14T05:15:48.319Z,23.10000038
2023-02-14T05:16:48.875Z,26.39999962
2023-02-14T05:17:50.000Z,23.10000038
2023-02-14T05:18:50.524Z,22.39999962
2023-02-14T05:19:51.560Z,21.79999924
2023-02-14T05:20:52.006Z,23.60000038
2023-02-14T05:21:52.569Z,22.20000076
2023-02-14T05:22:53.010Z,22.79999924
2023-02-14T05:23:53.553Z,25.39999962
2023-02-14T05:24:54.083Z,21.70000076
2023-02-14T05:25:54.496Z,23.5
2023-02-14T05:26:54.977Z,22.39999962
2023-02-14T05:27:55.436Z,21.70000076
2023-02-14T05:28:55.952Z,23.70000076
2023-02-14T05:29:57.042Z,24.89999962
2023-02-14T05:30:57.606Z,24.10000038
2023-02-14T05:31:58.790Z,23.5
2023-02-14T05:32:59.995Z,22
2023-02-14T05:34:00.527Z,23.70000076
2023-02-14T05:35:01.365Z,23.79999924
2023-02-14T05:36:01.561Z,22.70000076
2023-02-14T05:37:02.687Z,21.5
2023-02-14T05:38:03.140Z,23.5
2023-02-14T05:39:03.614Z,23.79999924
2023-02-14T05:40:05.018Z,23.20000076
2023-02-14T05:41:06.345Z,22.60000038
2023-02-14T05:42:06.919Z,24.60000038
2023-02-14T05:43:07.383Z,21.79999924
2023-02-14T05:44:07.834Z,21.20000076
2023-02-14T05:45:08.298Z,21
2023-02-14T05:46:08.790Z,21.5
2023-02-14T05:47:39.963Z,25
2023-02-14T05:48:40.661Z,22.70000076
2023-02-14T05:49:41.792Z,23.29999924
2023-02-14T05:50:42.265Z,21.10000038
2023-02-14T05:51:42.797Z,23
2023-02-14T05:52:43.215Z,23.5
2023-02-14T05:53:43.680Z,23.70000076
2023-02-14T05:54:44.152Z,22.20000076
2023-02-14T05:55:44.598Z,22.20000076
2023-02-14T05:56:46.113Z,24
2023-02-14T05:57:46.547Z,20.70000076
2023-02-14T05:58:47.106Z,23.29999924
2023-02-14T05:59:48.318Z,21.70000076
2023-02-14T06:00:48.782Z,23.39999962
2023-02-14T06:01:49.312Z,23.10000038
2023-02-14T06:02:50.322Z,22.20000076
2023-02-14T06:03:50.830Z,24
2023-02-14T06:04:51.413Z,25.29999924
2023-02-14T06:05:51.793Z,24.29999924
2023-02-14T06:06:53.007Z,23.10000038
2023-02-14T06:07:53.495Z,24.20000076
2023-02-14T06:08:53.967Z,22.29999924
2023-02-14T06:09:54.376Z,20.60000038
2023-02-14T06:10:54.883Z,20.70000076
2023-02-14T06:11:56.023Z,21.89999962
2023-02-14T06:12:57.169Z,21.60000038
2023-02-14T06:13:57.694Z,24.89999962
2023-02-14T06:14:58.130Z,24.29999924
2023-02-14T06:15:58.694Z,20.29999924
2023-02-14T06:17:00.145Z,24.79999924
2023-02-14T06:18:00.549Z,24.29999924
2023-02-14T06:19:01.107Z,23.5
2023-02-14T06:20:02.565Z,19.70000076
2023-02-14T06:21:03.044Z,25.10000038
2023-02-14T06:22:04.009Z,19.29999924
2023-02-14T06:23:04.527Z,20.10000038
2023-02-14T06:24:05.028Z,21.10000038
2023-02-14T06:25:06.398Z,22.60000038
2023-02-14T06:26:06.905Z,22.5
2023-02-14T06:27:07.391Z,22.60000038
2023-02-14T06:28:07.888Z,23.20000076
2023-02-14T06:29:40.298Z,20.79999924
2023-02-14T06:30:41.091Z,22.60000038
2023-02-14T06:31:41.606Z,20
2023-02-14T06:32:42.388Z,19.39999962
2023-02-14T06:33:42.844Z,21.70000076
2023-02-14T06:34:43.320Z,22.29999924
2023-02-14T06:35:43.899Z,20.39999962
2023-02-14T06:36:44.346Z,20.89999962
2023-02-14T06:37:44.881Z,24.10000038
2023-02-14T06:38:45.304Z,22.60000038
2023-02-14T06:39:46.572Z,20.60000038
2023-02-14T06:40:48.119Z,21.79999924
2023-02-14T06:41:48.573Z,26.70000076
2023-02-14T06:42:49.531Z,21
2023-02-14T06:43:49.995Z,18.29999924
2023-02-14T06:44:50.408Z,20.10000038
2023-02-14T06:45:51.031Z,24.5
2023-02-14T06:46:51.361Z,20.29999924
2023-02-14T06:47:51.824Z,21
2023-02-14T06:48:52.254Z,22.20000076
2023-02-14T06:49:53.292Z,22.20000076
2023-02-14T06:50:53.840Z,23.79999924
2023-02-14T06:51:54.291Z,22.5
2023-02-14T06:52:54.783Z,23.70000076
2023-02-14T06:53:55.286Z,25.5
2023-02-14T06:54:55.742Z,20.10000038
2023-02-14T06:55:56.334Z,20.89999962
2023-02-14T06:56:56.770Z,20.10000038
2023-02-14T06:57:57.857Z,20.10000038
2023-02-14T06:58:58.235Z,24.70000076
2023-02-14T06:59:59.295Z,21.70000076
2023-02-14T07:01:00.232Z,20.5
2023-02-14T07:02:00.291Z,19.60000038
2023-02-14T07:03:00.937Z,21.39999962
2023-02-14T07:04:02.028Z,21.39999962
2023-02-14T07:05:02.564Z,19.29999924
2023-02-14T07:06:03.059Z,17.70000076
2023-02-14T07:07:03.523Z,24.5
2023-02-14T07:08:04.175Z,23.29999924
2023-02-14T07:09:04.507Z,22.29999924
2023-02-14T07:10:05.823Z,21.29999924
2023-02-14T07:11:06.223Z,21.60000038
2023-02-14T07:12:06.641Z,22.70000076
2023-02-14T07:13:07.336Z,20.79999924
2023-02-14T07:14:07.744Z,20.20000076
2023-02-14T07:15:39.041Z,24
2023-02-14T07:16:39.389Z,19.89999962
2023-02-14T07:17:39.922Z,21.5
2023-02-14T07:18:40.716Z,22.70000076
2023-02-14T07:19:41.104Z,23.29999924
2023-02-14T07:20:42.734Z,22.5
2023-02-14T07:21:43.167Z,22.89999962
2023-02-14T07:22:43.637Z,21.20000076
2023-02-14T07:23:45.021Z,23.29999924
2023-02-14T07:24:45.523Z,22.29999924
2023-02-14T07:25:46.000Z,22.60000038
2023-02-14T07:26:47.065Z,18.79999924
2023-02-14T07:27:47.537Z,20.89999962
2023-02-14T07:28:48.017Z,23.10000038
2023-02-14T07:29:48.683Z,20.60000038
2023-02-14T07:30:50.170Z,19.20000076
2023-02-14T07:31:51.548Z,19.39999962
2023-02-14T07:32:52.790Z,20
2023-02-14T07:33:53.279Z,22.10000038
2023-02-14T07:34:53.792Z,20.39999962
2023-02-14T07:35:54.233Z,21.39999962
2023-02-14T07:36:55.573Z,22.10000038
2023-02-14T07:37:56.021Z,18.60000038
2023-02-14T07:38:56.487Z,22.79999924
2023-02-14T07:39:56.979Z,23.70000076
2023-02-14T07:40:57.613Z,23.29999924
2023-02-14T07:41:58.636Z,22.89999962
2023-02-14T07:42:59.092Z,24.10000038
2023-02-14T07:44:00.496Z,25.10000038
2023-02-14T07:45:09.411Z,21.5
2023-02-14T07:46:01.584Z,22.29999924
2023-02-14T07:47:02.068Z,21.5
2023-02-14T07:48:02.517Z,23.10000038
2023-02-14T07:49:03.068Z,22.60000038
2023-02-14T07:50:03.533Z,20.89999962
2023-02-14T07:51:04.558Z,24.10000038
2023-02-14T07:52:05.088Z,21.89999962
2023-02-14T07:53:05.518Z,22.89999962
2023-02-14T07:54:06.018Z,22.70000076
2023-02-14T07:55:07.314Z,22.5
2023-02-14T07:56:38.335Z,19.79999924
2023-02-14T07:57:38.888Z,22.29999924
2023-02-14T07:58:39.328Z,19
2023-02-14T07:59:39.825Z,23.10000038
2023-02-14T08:00:40.790Z,20
2023-02-14T08:01:41.368Z,19.60000038
2023-02-14T08:02:41.806Z,19.60000038
2023-02-14T08:03:42.821Z,23.70000076
2023-02-14T08:04:43.371Z,18
2023-02-14T08:05:44.480Z,19.89999962
2023-02-14T08:06:44.939Z,20.10000038
2023-02-14T08:07:45.383Z,19.39999962
2023-02-14T08:08:45.870Z,19.10000038
2023-02-14T08:09:46.351Z,20.70000076
2023-02-14T08:10:47.270Z,19.20000076
2023-02-14T08:11:47.793Z,20.20000076
2023-02-14T08:12:48.265Z,18.60000038
2023-02-14T08:13:48.729Z,19.60000038
2023-02-14T08:14:49.238Z,21.5
2023-02-14T08:15:49.685Z,23.29999924
2023-02-14T08:16:50.140Z,32.90000153
2023-02-14T08:17:50.698Z,27.79999924
2023-02-14T08:18:51.812Z,28.29999924
2023-02-14T08:19:52.321Z,24.89999962
2023-02-14T08:20:53.267Z,24.5
2023-02-14T08:21:53.761Z,20.5
2023-02-14T08:22:54.268Z,26.5
2023-02-14T08:23:54.781Z,23.29999924
2023-02-14T08:24:55.344Z,24.89999962
2023-02-14T08:25:55.808Z,22.20000076
2023-02-14T08:26:56.377Z,20.89999962
2023-02-14T08:27:56.817Z,23.60000038
2023-02-14T08:28:58.059Z,23.39999962
2023-02-14T08:29:58.749Z,20.10000038
2023-02-14T08:31:00.280Z,22.70000076
2023-02-14T08:32:00.492Z,17.79999924
2023-02-14T08:33:00.851Z,16.10000038
2023-02-14T08:34:02.272Z,20.10000038
2023-02-14T08:35:02.768Z,17.60000038
2023-02-14T08:36:03.391Z,26.39999962
2023-02-14T08:37:03.840Z,30.10000038
2023-02-14T08:38:04.261Z,19
2023-02-14T08:39:04.910Z,18.29999924
2023-02-14T08:40:05.903Z,14.19999981
2023-02-14T08:41:09.025Z,14
2023-02-14T08:42:38.182Z,12.89999962
2023-02-14T08:43:38.636Z,15.80000019
2023-02-14T08:44:39.109Z,12.69999981
2023-02-14T08:45:39.657Z,15.60000038
2023-02-14T08:46:40.149Z,17.5
2023-02-14T08:47:40.867Z,15.60000038
2023-02-14T08:48:41.326Z,11.39999962
2023-02-14T08:49:41.814Z,12
2023-02-14T08:50:43.300Z,13.69999981
2023-02-14T08:51:43.789Z,14
2023-02-14T08:52:44.389Z,25.20000076
2023-02-14T08:53:44.836Z,17.89999962
2023-02-14T08:54:45.277Z,17.60000038
2023-02-14T08:55:45.911Z,14.69999981
2023-02-14T08:56:46.434Z,15.39999962
2023-02-14T08:57:46.947Z,16
2023-02-14T08:58:47.399Z,15.39999962
2023-02-14T08:59:47.881Z,15.30000019
2023-02-14T09:00:49.339Z,18.29999924
2023-02-14T09:01:49.736Z,13.89999962
2023-02-14T09:02:50.345Z,27.20000076
2023-02-14T09:03:51.381Z,33.79999924
2023-02-14T09:04:51.713Z,29
2023-02-14T09:05:52.321Z,26.20000076
2023-02-14T09:06:52.834Z,26.79999924
2023-02-14T09:07:53.344Z,34.5
2023-02-14T09:08:53.906Z,17.70000076
2023-02-14T09:09:54.417Z,42.29999924
2023-02-14T09:10:55.851Z,40.40000153
2023-02-14T09:11:56.344Z,30.89999962
2023-02-14T09:12:56.762Z,47.40000153
2023-02-14T09:13:57.238Z,37.59999847
2023-02-14T09:14:57.732Z,30.5
2023-02-14T09:15:58.373Z,23.29999924
2023-02-14T09:16:58.774Z,10.60000038
2023-02-14T09:17:59.315Z,20.70000076
2023-02-14T09:18:59.760Z,16.20000076
2023-02-14T09:20:00.288Z,20.70000076
2023-02-14T09:21:01.759Z,19.89999962
2023-02-14T09:22:01.915Z,14.39999962
2023-02-14T09:23:02.316Z,16.20000076
2023-02-14T09:24:02.897Z,19.79999924
2023-02-14T09:25:03.375Z,14.69999981
2023-02-14T09:26:03.851Z,12.89999962
2023-02-14T09:27:04.359Z,12.19999981
2023-02-14T09:28:04.853Z,17.70000076
2023-02-14T09:29:05.371Z,16.29999924
2023-02-14T09:30:05.944Z,14.80000019
2023-02-14T09:31:06.327Z,16.89999962
2023-02-14T09:32:37.855Z,18.89999962
2023-02-14T09:33:38.289Z,21.70000076
2023-02-14T09:34:38.880Z,16.39999962
2023-02-14T09:35:39.377Z,10.10000038
2023-02-14T09:36:40.798Z,11.89999962
2023-02-14T09:37:41.568Z,13.80000019
2023-02-14T09:38:42.080Z,10.19999981
2023-02-14T09:39:42.605Z,11.89999962
2023-02-14T09:40:43.179Z,14.69999981
2023-02-14T09:41:44.479Z,13.19999981
2023-02-14T09:42:45.031Z,12
2023-02-14T09:43:45.494Z,14
2023-02-14T09:44:46.067Z,16.5
2023-02-14T09:45:46.747Z,12.80000019
2023-02-14T09:46:47.157Z,10.39999962
2023-02-14T09:47:47.766Z,9.199999809
2023-02-14T09:48:48.313Z,12.39999962
2023-02-14T09:49:48.917Z,11.19999981
2023-02-14T09:50:49.274Z,12.19999981
2023-02-14T09:51:49.793Z,14.30000019
2023-02-14T09:52:51.011Z,9.800000191
2023-02-14T09:53:51.542Z,10.10000038
2023-02-14T09:54:52.004Z,9.399999619
2023-02-14T09:55:52.437Z,10.69999981
2023-02-14T09:56:52.925Z,12
2023-02-14T09:57:53.358Z,9.899999619
2023-02-14T09:58:54.576Z,9.300000191
2023-02-14T09:59:55.093Z,9.600000381
2023-02-14T10:00:55.569Z,9.899999619
2023-02-14T10:01:57.134Z,10
2023-02-14T10:02:57.473Z,9
2023-02-14T10:03:58.832Z,8.899999619
2023-02-14T10:04:59.294Z,9.399999619
2023-02-14T10:05:59.794Z,9.800000191
2023-02-14T10:07:01.038Z,8.899999619
2023-02-14T10:08:01.572Z,8.800000191
2023-02-14T10:09:02.154Z,9.399999619
2023-02-14T10:10:02.620Z,10.19999981
2023-02-14T10:11:03.076Z,8.699999809
2023-02-14T10:12:04.674Z,11.69999981
2023-02-14T10:13:05.048Z,8.5
2023-02-14T10:14:05.570Z,8.5
2023-02-14T10:15:36.898Z,9.899999619
2023-02-14T10:16:37.384Z,10.60000038
2023-02-14T10:17:38.139Z,11.30000019
2023-02-14T10:18:38.688Z,12.5
2023-02-14T10:19:39.146Z,11.10000038
2023-02-14T10:20:39.782Z,11.80000019
2023-02-14T10:21:41.283Z,11
2023-02-14T10:22:41.806Z,12.80000019
2023-02-14T10:23:42.262Z,13
2023-02-14T10:24:42.718Z,12.5
2023-02-14T10:25:43.372Z,11.19999981
2023-02-14T10:26:43.877Z,12.39999962
2023-02-14T10:27:44.403Z,13.10000038
2023-02-14T10:28:44.960Z,11.30000019
2023-02-14T10:29:45.418Z,10.39999962
2023-02-14T10:30:46.098Z,12.39999962
2023-02-14T10:31:47.126Z,11.60000038
2023-02-14T10:32:48.047Z,10.69999981
2023-02-14T10:33:48.643Z,14.30000019
2023-02-14T10:34:49.133Z,13.30000019
2023-02-14T10:35:49.619Z,11.39999962
2023-02-14T10:36:50.827Z,13.60000038
2023-02-14T10:37:51.439Z,12.30000019
2023-02-14T10:38:51.852Z,12.89999962
2023-02-14T10:39:52.323Z,11.89999962
2023-02-14T10:40:52.878Z,13
2023-02-14T10:41:54.269Z,11.39999962
2023-02-14T10:42:54.735Z,14.10000038
2023-02-14T10:43:55.370Z,13.69999981
2023-02-14T10:44:55.927Z,10.39999962
2023-02-14T10:45:56.431Z,12.89999962
2023-02-14T10:46:56.840Z,14.69999981
2023-02-14T10:47:58.422Z,14.30000019
2023-02-14T10:48:58.877Z,14.89999962
2023-02-14T10:49:59.351Z,13.10000038
2023-02-14T10:51:00.219Z,13.80000019
2023-02-14T10:52:01.129Z,11.30000019
2023-02-14T10:53:01.834Z,14.30000019
2023-02-14T10:54:02.265Z,15.39999962
2023-02-14T10:55:02.765Z,12.5
2023-02-14T10:56:03.203Z,12.10000038
2023-02-14T10:57:03.712Z,12.10000038
2023-02-14T10:58:04.465Z,12.5
2023-02-14T10:59:04.933Z,12.80000019
2023-02-14T11:00:05.833Z,12.69999981
2023-02-14T11:01:37.333Z,14.5
2023-02-14T11:02:37.763Z,13.89999962
2023-02-14T11:03:38.433Z,16.60000038
2023-02-14T11:04:38.872Z,13.19999981
2023-02-14T11:05:39.355Z,14.89999962
2023-02-14T11:06:40.818Z,17.60000038
2023-02-14T11:07:41.230Z,15.39999962
2023-02-14T11:08:41.803Z,16.60000038
2023-02-14T11:09:42.235Z,15.30000019
2023-02-14T11:10:42.743Z,17.60000038
2023-02-14T11:11:43.780Z,17.89999962
2023-02-14T11:12:44.318Z,14.69999981
2023-02-14T11:13:44.880Z,15.39999962
2023-02-14T11:14:45.270Z,15.80000019
2023-02-14T11:15:45.750Z,14.10000038
2023-02-14T11:16:46.407Z,16.39999962
2023-02-14T11:17:46.824Z,15.30000019
2023-02-14T11:18:47.339Z,17.60000038
2023-02-14T11:19:47.953Z,14.80000019
2023-02-14T11:20:49.270Z,17.10000038
2023-02-14T11:21:50.255Z,16.5
2023-02-14T11:22:50.793Z,15.19999981
2023-02-14T11:23:51.238Z,17.70000076
2023-02-14T11:24:51.707Z,21
2023-02-14T11:25:52.126Z,19.10000038
2023-02-14T11:26:52.577Z,19.5
2023-02-14T11:27:53.055Z,15
2023-02-14T11:28:53.513Z,17
2023-02-14T11:29:54.025Z,17.5
2023-02-14T11:30:54.621Z,15.69999981
2023-02-14T11:31:54.944Z,16.70000076